sensor_id;sensor_type;location;lat;lon;timestamp;temperature;humidity
13186;DHT22;6658;53.080;7.428;2023-04-01T00:00:19;10.30;99.90
13186;DHT22;6658;53.080;7.428;2023-04-01T00:02:45;10.30;99.90
13186;DHT22;6658;53.080;7.428;2023-04-01T00:05:11;10.30;99.90
13186;DHT22;6658;53.080;7.428;2023-04-01T00:07:38;10.30;99.90
13186;DHT22;6658;53.080;7.428;2023-04-01T00:10:06;10.30;99.90
13186;DHT22;6658;53.080;7.428;2023-04-01T00:12:32;10.30;99.90
13186;DHT22;6658;53.080;7.428;2023-04-01T00:14:58;10.30;99.90
13186;DHT22;6658;53.080;7.428;2023-04-01T00:17:23;10.30;99.90
13186;DHT22;6658;53.080;7.428;2023-04-01T00:19:49;10.30;99.90
13186;DHT22;6658;53.080;7.428;2023-04-01T00:22:15;10.30;99.90
13186;DHT22;6658;53.080;7.428;2023-04-01T00:24:40;10.30;99.90
13186;DHT22;6658;53.080;7.428;2023-04-01T00:27:06;10.30;99.90
13186;DHT22;6658;53.080;7.428;2023-04-01T00:29:34;10.30;99.90
13186;DHT22;6658;53.080;7.428;2023-04-01T00:32:00;10.30;99.90
13186;DHT22;6658;53.080;7.428;2023-04-01T00:34:26;10.30;99.90
13186;DHT22;6658;53.080;7.428;2023-04-01T00:36:52;10.30;99.90
13186;DHT22;6658;53.080;7.428;2023-04-01T00:39:19;10.30;99.90
13186;DHT22;6658;53.080;7.428;2023-04-01T00:41:45;10.30;99.90
13186;DHT22;6658;53.080;7.428;2023-04-01T00:44:18;10.30;99.90
13186;DHT22;6658;53.080;7.428;2023-04-01T00:46:45;10.40;99.90
13186;DHT22;6658;53.080;7.428;2023-04-01T00:49:11;10.30;99.90
13186;DHT22;6658;53.080;7.428;2023-04-01T00:51:38;10.30;99.90
13186;DHT22;6658;53.080;7.428;2023-04-01T00:54:07;10.30;99.90
13186;DHT22;6658;53.080;7.428;2023-04-01T00:56:45;10.30;99.90
13186;DHT22;6658;53.080;7.428;2023-04-01T00:59:18;10.30;99.90
13186;DHT22;6658;53.080;7.428;2023-04-01T01:01:45;10.30;99.90
13186;DHT22;6658;53.080;7.428;2023-04-01T01:04:29;10.30;99.90
13186;DHT22;6658;53.080;7.428;2023-04-01T01:09:45;10.30;99.90
13186;DHT22;6658;53.080;7.428;2023-04-01T01:20:24;10.30;99.90
13186;DHT22;6658;53.080;7.428;2023-04-01T01:26:29;10.30;99.90
13186;DHT22;6658;53.080;7.428;2023-04-01T01:32:18;10.30;99.90
13186;DHT22;6658;53.080;7.428;2023-04-01T01:37:31;10.30;99.90
13186;DHT22;6658;53.080;7.428;2023-04-01T01:40:05;10.30;99.90
13186;DHT22;6658;53.080;7.428;2023-04-01T01:42:34;10.20;99.90
13186;DHT22;6658;53.080;7.428;2023-04-01T01:45:03;10.20;99.90
13186;DHT22;6658;53.080;7.428;2023-04-01T01:47:29;10.30;99.90
13186;DHT22;6658;53.080;7.428;2023-04-01T01:49:55;10.20;99.90
13186;DHT22;6658;53.080;7.428;2023-04-01T01:52:23;10.20;99.90
13186;DHT22;6658;53.080;7.428;2023-04-01T01:54:50;10.20;99.90
13186;DHT22;6658;53.080;7.428;2023-04-01T01:57:17;10.20;99.90
13186;DHT22;6658;53.080;7.428;2023-04-01T01:59:47;10.20;99.90
13186;DHT22;6658;53.080;7.428;2023-04-01T02:02:15;10.20;99.90
13186;DHT22;6658;53.080;7.428;2023-04-01T02:04:44;10.20;99.90
13186;DHT22;6658;53.080;7.428;2023-04-01T02:07:16;10.20;99.90
13186;DHT22;6658;53.080;7.428;2023-04-01T02:09:44;10.20;99.90
13186;DHT22;6658;53.080;7.428;2023-04-01T02:12:12;10.20;99.90
13186;DHT22;6658;53.080;7.428;2023-04-01T02:17:08;10.20;99.90
13186;DHT22;6658;53.080;7.428;2023-04-01T02:19:41;10.20;99.90
13186;DHT22;6658;53.080;7.428;2023-04-01T02:22:12;10.20;99.90
13186;DHT22;6658;53.080;7.428;2023-04-01T02:24:40;10.20;99.90
13186;DHT22;6658;53.080;7.428;2023-04-01T02:27:09;10.20;99.90
13186;DHT22;6658;53.080;7.428;2023-04-01T02:29:35;10.20;99.90
13186;DHT22;6658;53.080;7.428;2023-04-01T02:32:01;10.20;99.90
13186;DHT22;6658;53.080;7.428;2023-04-01T02:34:28;10.20;99.90
13186;DHT22;6658;53.080;7.428;2023-04-01T02:36:55;10.20;99.90
13186;DHT22;6658;53.080;7.428;2023-04-01T02:39:22;10.20;99.90
13186;DHT22;6658;53.080;7.428;2023-04-01T02:41:48;10.20;99.90
13186;DHT22;6658;53.080;7.428;2023-04-01T02:44:15;10.20;99.90
13186;DHT22;6658;53.080;7.428;2023-04-01T02:46:41;10.20;99.90
13186;DHT22;6658;53.080;7.428;2023-04-01T02:49:07;10.20;99.90
13186;DHT22;6658;53.080;7.428;2023-04-01T02:51:33;10.20;99.90
13186;DHT22;6658;53.080;7.428;2023-04-01T02:53:59;10.20;99.90
13186;DHT22;6658;53.080;7.428;2023-04-01T02:56:25;10.20;99.90
13186;DHT22;6658;53.080;7.428;2023-04-01T02:58:52;10.20;99.90
13186;DHT22;6658;53.080;7.428;2023-04-01T03:01:17;10.20;99.90
13186;DHT22;6658;53.080;7.428;2023-04-01T03:03:43;10.20;99.90
13186;DHT22;6658;53.080;7.428;2023-04-01T03:06:11;10.10;99.90
13186;DHT22;6658;53.080;7.428;2023-04-01T03:08:37;10.10;99.90
13186;DHT22;6658;53.080;7.428;2023-04-01T03:11:02;10.10;99.90
13186;DHT22;6658;53.080;7.428;2023-04-01T03:13:28;10.10;99.90
13186;DHT22;6658;53.080;7.428;2023-04-01T03:15:54;10.20;99.90
13186;DHT22;6658;53.080;7.428;2023-04-01T03:18:20;10.20;99.90
13186;DHT22;6658;53.080;7.428;2023-04-01T03:20:46;10.20;99.90
13186;DHT22;6658;53.080;7.428;2023-04-01T03:23:11;10.20;99.90
13186;DHT22;6658;53.080;7.428;2023-04-01T03:25:37;10.10;99.90
13186;DHT22;6658;53.080;7.428;2023-04-01T03:28:03;10.10;99.90
13186;DHT22;6658;53.080;7.428;2023-04-01T03:30:29;10.10;99.90
13186;DHT22;6658;53.080;7.428;2023-04-01T03:32:57;10.10;99.90
13186;DHT22;6658;53.080;7.428;2023-04-01T03:35:23;10.10;99.90
13186;DHT22;6658;53.080;7.428;2023-04-01T03:37:51;10.10;99.90
13186;DHT22;6658;53.080;7.428;2023-04-01T03:40:17;10.10;99.90
13186;DHT22;6658;53.080;7.428;2023-04-01T03:42:42;10.10;99.90
13186;DHT22;6658;53.080;7.428;2023-04-01T03:45:09;10.10;99.90
13186;DHT22;6658;53.080;7.428;2023-04-01T03:47:35;10.00;99.90
13186;DHT22;6658;53.080;7.428;2023-04-01T03:50:01;10.00;99.90
13186;DHT22;6658;53.080;7.428;2023-04-01T03:52:26;10.00;99.90
13186;DHT22;6658;53.080;7.428;2023-04-01T03:54:52;10.00;99.90
13186;DHT22;6658;53.080;7.428;2023-04-01T03:57:18;10.00;99.90
13186;DHT22;6658;53.080;7.428;2023-04-01T03:59:43;10.10;99.90
13186;DHT22;6658;53.080;7.428;2023-04-01T04:02:09;10.00;99.90
13186;DHT22;6658;53.080;7.428;2023-04-01T04:04:35;10.10;99.90
13186;DHT22;6658;53.080;7.428;2023-04-01T04:07:01;10.00;99.90
13186;DHT22;6658;53.080;7.428;2023-04-01T04:09:27;10.10;99.90
13186;DHT22;6658;53.080;7.428;2023-04-01T04:11:52;10.10;99.90
13186;DHT22;6658;53.080;7.428;2023-04-01T04:14:18;10.10;99.90
13186;DHT22;6658;53.080;7.428;2023-04-01T04:16:44;10.10;99.90
13186;DHT22;6658;53.080;7.428;2023-04-01T04:19:09;10.10;99.90
13186;DHT22;6658;53.080;7.428;2023-04-01T04:21:35;10.10;99.90
13186;DHT22;6658;53.080;7.428;2023-04-01T04:24:01;10.10;99.90
13186;DHT22;6658;53.080;7.428;2023-04-01T04:26:27;10.10;99.90
13186;DHT22;6658;53.080;7.428;2023-04-01T04:28:54;10.10;99.90
13186;DHT22;6658;53.080;7.428;2023-04-01T04:31:21;10.10;99.90
13186;DHT22;6658;53.080;7.428;2023-04-01T04:33:47;10.10;99.90
13186;DHT22;6658;53.080;7.428;2023-04-01T04:36:14;10.10;99.90
13186;DHT22;6658;53.080;7.428;2023-04-01T04:38:40;10.10;99.90
13186;DHT22;6658;53.080;7.428;2023-04-01T04:41:16;10.10;99.90
13186;DHT22;6658;53.080;7.428;2023-04-01T04:43:52;10.10;99.90
13186;DHT22;6658;53.080;7.428;2023-04-01T04:46:18;10.10;99.90
13186;DHT22;6658;53.080;7.428;2023-04-01T04:48:44;10.10;99.90
13186;DHT22;6658;53.080;7.428;2023-04-01T04:51:13;10.10;99.90
13186;DHT22;6658;53.080;7.428;2023-04-01T04:53:40;10.00;99.90
13186;DHT22;6658;53.080;7.428;2023-04-01T04:56:06;10.10;99.90
13186;DHT22;6658;53.080;7.428;2023-04-01T04:58:32;10.10;99.90
13186;DHT22;6658;53.080;7.428;2023-04-01T05:00:58;10.10;99.90
13186;DHT22;6658;53.080;7.428;2023-04-01T05:03:27;10.10;99.90
13186;DHT22;6658;53.080;7.428;2023-04-01T05:05:53;10.00;99.90
13186;DHT22;6658;53.080;7.428;2023-04-01T05:08:19;10.00;99.90
13186;DHT22;6658;53.080;7.428;2023-04-01T05:10:45;10.10;99.90
13186;DHT22;6658;53.080;7.428;2023-04-01T05:13:11;10.00;99.90
13186;DHT22;6658;53.080;7.428;2023-04-01T05:15:37;10.00;99.90
13186;DHT22;6658;53.080;7.428;2023-04-01T05:18:03;10.00;99.90
13186;DHT22;6658;53.080;7.428;2023-04-01T05:20:28;10.00;99.90
13186;DHT22;6658;53.080;7.428;2023-04-01T05:22:58;10.10;99.90
13186;DHT22;6658;53.080;7.428;2023-04-01T05:25:24;10.10;99.90
13186;DHT22;6658;53.080;7.428;2023-04-01T05:27:50;10.10;99.90
13186;DHT22;6658;53.080;7.428;2023-04-01T05:30:16;10.10;99.90
13186;DHT22;6658;53.080;7.428;2023-04-01T05:32:41;10.10;99.90
13186;DHT22;6658;53.080;7.428;2023-04-01T05:35:08;10.10;99.90
13186;DHT22;6658;53.080;7.428;2023-04-01T05:37:35;10.20;99.90
13186;DHT22;6658;53.080;7.428;2023-04-01T05:40:01;10.20;99.90
13186;DHT22;6658;53.080;7.428;2023-04-01T05:42:26;10.20;99.90
13186;DHT22;6658;53.080;7.428;2023-04-01T05:44:52;10.20;99.90
13186;DHT22;6658;53.080;7.428;2023-04-01T05:47:18;10.30;99.90
13186;DHT22;6658;53.080;7.428;2023-04-01T05:49:44;10.30;99.90
13186;DHT22;6658;53.080;7.428;2023-04-01T05:52:09;10.30;99.90
13186;DHT22;6658;53.080;7.428;2023-04-01T05:54:35;10.30;99.90
13186;DHT22;6658;53.080;7.428;2023-04-01T05:57:01;10.40;99.90
13186;DHT22;6658;53.080;7.428;2023-04-01T05:59:27;10.40;99.90
13186;DHT22;6658;53.080;7.428;2023-04-01T06:01:53;10.50;99.90
13186;DHT22;6658;53.080;7.428;2023-04-01T06:04:18;10.50;99.90
13186;DHT22;6658;53.080;7.428;2023-04-01T06:06:45;10.50;99.90
13186;DHT22;6658;53.080;7.428;2023-04-01T06:09:31;10.50;99.90
13186;DHT22;6658;53.080;7.428;2023-04-01T06:12:28;10.60;99.90
13186;DHT22;6658;53.080;7.428;2023-04-01T06:20:35;10.60;99.90
13186;DHT22;6658;53.080;7.428;2023-04-01T06:26:19;10.60;99.90
13186;DHT22;6658;53.080;7.428;2023-04-01T06:29:13;10.60;99.90
13186;DHT22;6658;53.080;7.428;2023-04-01T06:34:58;10.70;99.90
13186;DHT22;6658;53.080;7.428;2023-04-01T06:48:53;10.70;99.90
13186;DHT22;6658;53.080;7.428;2023-04-01T06:51:44;10.80;99.90
13186;DHT22;6658;53.080;7.428;2023-04-01T06:54:21;10.80;99.90
13186;DHT22;6658;53.080;7.428;2023-04-01T06:56:54;10.80;99.90
13186;DHT22;6658;53.080;7.428;2023-04-01T06:59:28;10.80;99.90
13186;DHT22;6658;53.080;7.428;2023-04-01T07:02:18;10.80;99.90
13186;DHT22;6658;53.080;7.428;2023-04-01T07:04:51;10.80;99.90
13186;DHT22;6658;53.080;7.428;2023-04-01T07:07:36;10.90;99.90
13186;DHT22;6658;53.080;7.428;2023-04-01T07:10:09;10.80;99.90
13186;DHT22;6658;53.080;7.428;2023-04-01T07:12:45;10.80;99.90
13186;DHT22;6658;53.080;7.428;2023-04-01T07:15:28;10.80;99.90
13186;DHT22;6658;53.080;7.428;2023-04-01T07:17:58;10.80;99.90
13186;DHT22;6658;53.080;7.428;2023-04-01T07:20:31;10.80;99.90
13186;DHT22;6658;53.080;7.428;2023-04-01T07:23:00;10.80;99.90
13186;DHT22;6658;53.080;7.428;2023-04-01T07:25:58;10.80;99.90
13186;DHT22;6658;53.080;7.428;2023-04-01T07:28:30;10.90;99.90
13186;DHT22;6658;53.080;7.428;2023-04-01T07:31:05;10.90;99.90
13186;DHT22;6658;53.080;7.428;2023-04-01T07:33:39;10.90;99.90
13186;DHT22;6658;53.080;7.428;2023-04-01T07:36:21;11.00;99.90
13186;DHT22;6658;53.080;7.428;2023-04-01T07:54:55;10.90;99.90
13186;DHT22;6658;53.080;7.428;2023-04-01T07:57:33;10.90;99.90
13186;DHT22;6658;53.080;7.428;2023-04-01T08:00:12;11.00;99.90
13186;DHT22;6658;53.080;7.428;2023-04-01T08:05:29;11.20;99.90
13186;DHT22;6658;53.080;7.428;2023-04-01T08:08:27;11.30;99.90
13186;DHT22;6658;53.080;7.428;2023-04-01T08:16:31;11.40;99.90
13186;DHT22;6658;53.080;7.428;2023-04-01T08:21:55;11.50;99.90
13186;DHT22;6658;53.080;7.428;2023-04-01T08:24:45;11.40;99.90
13186;DHT22;6658;53.080;7.428;2023-04-01T08:27:37;11.50;99.90
13186;DHT22;6658;53.080;7.428;2023-04-01T08:32:47;11.50;99.90
13186;DHT22;6658;53.080;7.428;2023-04-01T08:37:44;11.40;99.90
13186;DHT22;6658;53.080;7.428;2023-04-01T08:40:51;11.40;99.90
13186;DHT22;6658;53.080;7.428;2023-04-01T08:51:15;11.50;99.90
13186;DHT22;6658;53.080;7.428;2023-04-01T08:56:59;11.70;99.90
13186;DHT22;6658;53.080;7.428;2023-04-01T09:05:34;11.70;99.90
13186;DHT22;6658;53.080;7.428;2023-04-01T09:10:32;11.70;99.90
13186;DHT22;6658;53.080;7.428;2023-04-01T09:13:05;11.70;99.90
13186;DHT22;6658;53.080;7.428;2023-04-01T09:15:50;11.70;99.90
13186;DHT22;6658;53.080;7.428;2023-04-01T09:30:11;12.30;99.90
13186;DHT22;6658;53.080;7.428;2023-04-01T09:33:11;12.30;99.90
13186;DHT22;6658;53.080;7.428;2023-04-01T09:43:39;12.30;99.90
13186;DHT22;6658;53.080;7.428;2023-04-01T09:46:18;12.40;99.90
13186;DHT22;6658;53.080;7.428;2023-04-01T09:49:25;12.60;99.90
13186;DHT22;6658;53.080;7.428;2023-04-01T10:03:19;11.30;99.90
13186;DHT22;6658;53.080;7.428;2023-04-01T10:42:09;11.30;99.90
13186;DHT22;6658;53.080;7.428;2023-04-01T10:47:59;11.20;99.90
13186;DHT22;6658;53.080;7.428;2023-04-01T11:15:31;10.60;99.90
13186;DHT22;6658;53.080;7.428;2023-04-01T11:38:00;10.60;99.90
13186;DHT22;6658;53.080;7.428;2023-04-01T11:43:09;10.60;99.90
13186;DHT22;6658;53.080;7.428;2023-04-01T11:46:00;10.50;99.90
13186;DHT22;6658;53.080;7.428;2023-04-01T11:48:55;10.60;99.90
13186;DHT22;6658;53.080;7.428;2023-04-01T11:57:35;10.50;99.90
13186;DHT22;6658;53.080;7.428;2023-04-01T12:11:27;10.20;99.90
13186;DHT22;6658;53.080;7.428;2023-04-01T12:14:03;10.20;99.90
13186;DHT22;6658;53.080;7.428;2023-04-01T12:21:55;10.10;99.90
13186;DHT22;6658;53.080;7.428;2023-04-01T12:24:45;10.00;99.90
13186;DHT22;6658;53.080;7.428;2023-04-01T12:44:09;10.00;99.90
13186;DHT22;6658;53.080;7.428;2023-04-01T12:46:48;10.10;99.90
13186;DHT22;6658;53.080;7.428;2023-04-01T12:52:28;10.10;99.90
13186;DHT22;6658;53.080;7.428;2023-04-01T12:55:59;10.00;99.90
13186;DHT22;6658;53.080;7.428;2023-04-01T13:00:39;10.00;99.90
13186;DHT22;6658;53.080;7.428;2023-04-01T13:06:20;9.80;99.90
13186;DHT22;6658;53.080;7.428;2023-04-01T13:09:05;9.70;99.90
13186;DHT22;6658;53.080;7.428;2023-04-01T13:28:20;9.60;99.90
13186;DHT22;6658;53.080;7.428;2023-04-01T13:37:02;9.80;99.90
13186;DHT22;6658;53.080;7.428;2023-04-01T13:39:52;9.80;99.90
13186;DHT22;6658;53.080;7.428;2023-04-01T13:45:17;9.90;99.90
13186;DHT22;6658;53.080;7.428;2023-04-01T14:10:23;9.50;99.90
13186;DHT22;6658;53.080;7.428;2023-04-01T14:21:30;9.40;99.90
13186;DHT22;6658;53.080;7.428;2023-04-01T14:26:56;9.40;99.90
13186;DHT22;6658;53.080;7.428;2023-04-01T14:30:09;9.40;99.90
13186;DHT22;6658;53.080;7.428;2023-04-01T14:32:49;9.40;99.90
13186;DHT22;6658;53.080;7.428;2023-04-01T14:41:15;9.50;99.90
13186;DHT22;6658;53.080;7.428;2023-04-01T14:51:46;9.20;99.90
13186;DHT22;6658;53.080;7.428;2023-04-01T14:54:13;9.20;99.90
13186;DHT22;6658;53.080;7.428;2023-04-01T15:04:41;9.20;99.90
13186;DHT22;6658;53.080;7.428;2023-04-01T15:07:45;9.20;99.90
13186;DHT22;6658;53.080;7.428;2023-04-01T15:10:33;9.20;99.90
13186;DHT22;6658;53.080;7.428;2023-04-01T15:13:22;9.30;99.90
13186;DHT22;6658;53.080;7.428;2023-04-01T15:25:00;9.00;99.90
13186;DHT22;6658;53.080;7.428;2023-04-01T15:28:31;9.00;99.90
13186;DHT22;6658;53.080;7.428;2023-04-01T15:33:45;9.00;99.90
13186;DHT22;6658;53.080;7.428;2023-04-01T15:36:43;9.00;99.90
13186;DHT22;6658;53.080;7.428;2023-04-01T15:45:01;8.80;99.90
13186;DHT22;6658;53.080;7.428;2023-04-01T15:47:41;8.70;99.90
13186;DHT22;6658;53.080;7.428;2023-04-01T15:50:34;8.70;99.90
13186;DHT22;6658;53.080;7.428;2023-04-01T15:56:26;8.60;99.90
13186;DHT22;6658;53.080;7.428;2023-04-01T15:59:31;8.60;99.90
13186;DHT22;6658;53.080;7.428;2023-04-01T16:04:48;8.50;99.90
13186;DHT22;6658;53.080;7.428;2023-04-01T16:21:07;8.20;99.90
13186;DHT22;6658;53.080;7.428;2023-04-01T16:27:24;8.10;99.90
13186;DHT22;6658;53.080;7.428;2023-04-01T16:38:18;7.90;99.90
13186;DHT22;6658;53.080;7.428;2023-04-01T16:43:46;7.90;99.90
13186;DHT22;6658;53.080;7.428;2023-04-01T16:46:31;7.80;99.90
13186;DHT22;6658;53.080;7.428;2023-04-01T16:54:45;7.70;99.90
13186;DHT22;6658;53.080;7.428;2023-04-01T17:02:23;7.50;99.90
13186;DHT22;6658;53.080;7.428;2023-04-01T17:10:37;7.40;99.90
13186;DHT22;6658;53.080;7.428;2023-04-01T17:27:30;7.30;99.90
13186;DHT22;6658;53.080;7.428;2023-04-01T17:30:35;7.20;99.90
13186;DHT22;6658;53.080;7.428;2023-04-01T17:33:22;7.20;99.90
13186;DHT22;6658;53.080;7.428;2023-04-01T17:36:04;7.10;99.90
13186;DHT22;6658;53.080;7.428;2023-04-01T17:49:53;7.00;99.90
13186;DHT22;6658;53.080;7.428;2023-04-01T17:53:01;7.00;99.90
13186;DHT22;6658;53.080;7.428;2023-04-01T17:58:27;7.00;99.90
13186;DHT22;6658;53.080;7.428;2023-04-01T18:20:36;6.90;99.90
13186;DHT22;6658;53.080;7.428;2023-04-01T18:25:48;6.90;99.90
13186;DHT22;6658;53.080;7.428;2023-04-01T18:38:55;6.80;99.90
13186;DHT22;6658;53.080;7.428;2023-04-01T18:49:58;6.80;99.90
13186;DHT22;6658;53.080;7.428;2023-04-01T18:57:51;6.80;99.90
13186;DHT22;6658;53.080;7.428;2023-04-01T19:00:44;6.70;99.90
13186;DHT22;6658;53.080;7.428;2023-04-01T19:04:03;6.70;99.90
13186;DHT22;6658;53.080;7.428;2023-04-01T19:06:26;6.70;99.90
13186;DHT22;6658;53.080;7.428;2023-04-01T19:08:53;6.70;99.90
13186;DHT22;6658;53.080;7.428;2023-04-01T19:16:49;6.60;99.90
13186;DHT22;6658;53.080;7.428;2023-04-01T19:25:02;6.60;99.90
13186;DHT22;6658;53.080;7.428;2023-04-01T19:27:42;6.60;99.90
13186;DHT22;6658;53.080;7.428;2023-04-01T19:33:27;6.50;99.90
13186;DHT22;6658;53.080;7.428;2023-04-01T19:39:26;6.50;99.90
13186;DHT22;6658;53.080;7.428;2023-04-01T19:42:16;6.50;99.90
13186;DHT22;6658;53.080;7.428;2023-04-01T19:47:45;6.40;99.90
13186;DHT22;6658;53.080;7.428;2023-04-01T19:53:27;6.40;99.90
13186;DHT22;6658;53.080;7.428;2023-04-01T19:56:22;6.30;99.90
13186;DHT22;6658;53.080;7.428;2023-04-01T20:04:26;6.30;99.90
13186;DHT22;6658;53.080;7.428;2023-04-01T20:07:13;6.30;99.90
13186;DHT22;6658;53.080;7.428;2023-04-01T20:10:22;6.20;99.90
13186;DHT22;6658;53.080;7.428;2023-04-01T20:16:07;6.20;99.90
13186;DHT22;6658;53.080;7.428;2023-04-01T20:21:24;6.10;99.90
13186;DHT22;6658;53.080;7.428;2023-04-01T20:23:57;6.10;99.90
13186;DHT22;6658;53.080;7.428;2023-04-01T20:26:29;6.10;99.90
13186;DHT22;6658;53.080;7.428;2023-04-01T20:29:02;6.10;99.90
13186;DHT22;6658;53.080;7.428;2023-04-01T20:31:35;6.10;99.90
13186;DHT22;6658;53.080;7.428;2023-04-01T20:42:21;6.00;99.90
13186;DHT22;6658;53.080;7.428;2023-04-01T20:50:50;6.00;99.90
13186;DHT22;6658;53.080;7.428;2023-04-01T20:53:19;6.00;99.90
13186;DHT22;6658;53.080;7.428;2023-04-01T20:56:14;6.00;99.90
13186;DHT22;6658;53.080;7.428;2023-04-01T20:58:49;6.00;99.90
13186;DHT22;6658;53.080;7.428;2023-04-01T21:01:46;6.00;99.90
13186;DHT22;6658;53.080;7.428;2023-04-01T21:07:05;5.90;99.90
13186;DHT22;6658;53.080;7.428;2023-04-01T21:20:54;5.80;99.90
13186;DHT22;6658;53.080;7.428;2023-04-01T21:26:25;5.70;99.90
13186;DHT22;6658;53.080;7.428;2023-04-01T21:31:51;5.60;99.90
13186;DHT22;6658;53.080;7.428;2023-04-01T21:34:40;5.60;99.90
13186;DHT22;6658;53.080;7.428;2023-04-01T21:46:00;5.40;99.90
13186;DHT22;6658;53.080;7.428;2023-04-01T21:54:29;5.20;99.90
13186;DHT22;6658;53.080;7.428;2023-04-01T21:59:42;5.20;99.90
13186;DHT22;6658;53.080;7.428;2023-04-01T22:05:09;5.20;99.90
13186;DHT22;6658;53.080;7.428;2023-04-01T22:10:27;5.10;99.90
13186;DHT22;6658;53.080;7.428;2023-04-01T22:13:15;5.10;99.90
13186;DHT22;6658;53.080;7.428;2023-04-01T22:18:25;5.00;99.90
13186;DHT22;6658;53.080;7.428;2023-04-01T22:21:09;5.00;99.90
13186;DHT22;6658;53.080;7.428;2023-04-01T22:26:15;5.00;99.90
13186;DHT22;6658;53.080;7.428;2023-04-01T22:28:52;5.00;99.90
13186;DHT22;6658;53.080;7.428;2023-04-01T22:34:22;4.90;99.90
13186;DHT22;6658;53.080;7.428;2023-04-01T22:42:56;4.90;99.90
13186;DHT22;6658;53.080;7.428;2023-04-01T22:45:39;4.90;99.90
13186;DHT22;6658;53.080;7.428;2023-04-01T22:48:43;4.90;99.90
13186;DHT22;6658;53.080;7.428;2023-04-01T22:51:12;4.90;99.90
13186;DHT22;6658;53.080;7.428;2023-04-01T22:54:04;4.90;99.90
13186;DHT22;6658;53.080;7.428;2023-04-01T22:56:36;4.90;99.90
13186;DHT22;6658;53.080;7.428;2023-04-01T23:01:44;4.90;99.90
13186;DHT22;6658;53.080;7.428;2023-04-01T23:04:15;4.80;99.90
13186;DHT22;6658;53.080;7.428;2023-04-01T23:06:49;4.80;99.90
13186;DHT22;6658;53.080;7.428;2023-04-01T23:09:23;4.80;99.90
13186;DHT22;6658;53.080;7.428;2023-04-01T23:12:11;4.80;99.90
13186;DHT22;6658;53.080;7.428;2023-04-01T23:28:56;4.70;99.90
13186;DHT22;6658;53.080;7.428;2023-04-01T23:31:35;4.60;99.90
13186;DHT22;6658;53.080;7.428;2023-04-01T23:37:12;4.60;99.90
13186;DHT22;6658;53.080;7.428;2023-04-01T23:39:44;4.60;99.90
13186;DHT22;6658;53.080;7.428;2023-04-01T23:42:28;4.50;99.90
13186;DHT22;6658;53.080;7.428;2023-04-01T23:44:57;4.50;99.90
13186;DHT22;6658;53.080;7.428;2023-04-01T23:47:36;4.40;99.90
13186;DHT22;6658;53.080;7.428;2023-04-01T23:50:18;4.30;99.90
13186;DHT22;6658;53.080;7.428;2023-04-01T23:53:00;4.10;99.90
13186;DHT22;6658;53.080;7.428;2023-04-01T23:55:34;4.00;99.90
13186;DHT22;6658;53.080;7.428;2023-04-01T23:58:15;3.90;99.90
